createdAt,value
2023-02-23T00:04:46.972Z,0
2023-02-23T00:10:21.770Z,0
2023-02-23T00:15:57.245Z,0
2023-02-23T00:21:42.103Z,0
2023-02-23T00:27:08.464Z,0
2023-02-23T00:32:27.226Z,0
2023-02-23T00:38:10.925Z,0
2023-02-23T00:43:49.552Z,0
2023-02-23T00:49:30.779Z,0
2023-02-23T00:55:04.248Z,0
2023-02-23T01:00:24.500Z,0
2023-02-23T01:06:12.214Z,0
2023-02-23T01:11:37.969Z,0
2023-02-23T01:16:57.225Z,0
2023-02-23T01:22:47.049Z,0
2023-02-23T01:28:03.749Z,0
2023-02-23T01:33:37.708Z,0
2023-02-23T01:39:31.550Z,0
2023-02-23T01:44:58.644Z,0
2023-02-23T01:50:14.665Z,0
2023-02-23T01:56:09.570Z,0
2023-02-23T02:01:41.044Z,0
2023-02-23T02:07:02.471Z,0
2023-02-23T02:12:45.152Z,0
2023-02-23T02:18:07.990Z,0
2023-02-23T02:23:37.128Z,0
2023-02-23T02:29:10.835Z,0
2023-02-23T02:35:02.609Z,0
2023-02-23T02:40:19.649Z,0
2023-02-23T02:46:08.471Z,0
2023-02-23T02:51:44.867Z,0
2023-02-23T02:56:59.628Z,0
2023-02-23T03:02:41.292Z,0
2023-02-23T03:08:17.646Z,0
2023-02-23T03:14:05.683Z,0
2023-02-23T03:19:32.849Z,0
2023-02-23T03:24:51.163Z,0
2023-02-23T03:30:28.482Z,0
2023-02-23T03:35:58.296Z,0
2023-02-23T03:41:32.337Z,0
2023-02-23T03:47:22.068Z,0
2023-02-23T03:52:34.388Z,0
2023-02-23T03:58:32.059Z,0
2023-02-23T04:04:00.250Z,0
2023-02-23T04:09:14.596Z,0
2023-02-23T04:15:00.935Z,0
2023-02-23T04:20:46.718Z,0
2023-02-23T04:25:54.864Z,0
2023-02-23T04:31:31.488Z,0
2023-02-23T04:37:21.513Z,0
2023-02-23T04:42:50.425Z,0
2023-02-23T04:48:23.587Z,0
2023-02-23T04:53:46.448Z,0
2023-02-23T04:59:30.103Z,0
2023-02-23T05:05:00.356Z,0
2023-02-23T05:10:43.711Z,0
2023-02-23T05:16:18.469Z,0
2023-02-23T05:21:32.482Z,0
2023-02-23T05:27:12.132Z,0
2023-02-23T05:32:47.847Z,0
2023-02-23T05:38:33.333Z,0
2023-02-23T05:43:58.821Z,0
2023-02-23T05:49:30.410Z,0
2023-02-23T05:55:00.230Z,0
2023-02-23T06:00:22.961Z,0
2023-02-23T06:05:56.142Z,0
2023-02-23T06:11:55.708Z,0
2023-02-23T06:17:23.288Z,0
2023-02-23T06:22:50.873Z,0
2023-02-23T06:28:14.616Z,0
2023-02-23T06:33:42.851Z,0
2023-02-23T06:39:25.215Z,0
2023-02-23T06:44:59.567Z,0
2023-02-23T06:50:47.351Z,0
2023-02-23T06:56:14.562Z,0
2023-02-23T07:01:40.361Z,0
2023-02-23T07:07:07.672Z,0
2023-02-23T07:12:39.665Z,0
2023-02-23T07:18:17.796Z,0
2023-02-23T07:23:59.308Z,0
2023-02-23T07:29:21.375Z,0
2023-02-23T07:35:06.467Z,0
2023-02-23T07:40:40.207Z,0
2023-02-23T07:46:08.776Z,0
2023-02-23T07:51:29.873Z,0
2023-02-23T07:57:20.618Z,0
2023-02-23T08:03:04.476Z,0
2023-02-23T08:08:30.140Z,0
2023-02-23T08:14:01.477Z,0
2023-02-23T08:19:36.163Z,0
2023-02-23T08:25:17.954Z,0
2023-02-23T08:30:38.529Z,0
2023-02-23T08:35:59.962Z,0
2023-02-23T08:41:35.653Z,0
2023-02-23T08:47:12.957Z,0
2023-02-23T08:52:47.612Z,0
2023-02-23T08:58:22.802Z,0
2023-02-23T09:04:00.164Z,0
2023-02-23T09:09:36.188Z,0
2023-02-23T09:14:57.720Z,0
2023-02-23T09:20:38.954Z,0
2023-02-23T09:26:22.110Z,0
2023-02-23T09:31:57.628Z,0
2023-02-23T09:37:38.945Z,0
2023-02-23T09:43:03.657Z,0
2023-02-23T09:48:31.176Z,0
2023-02-23T09:54:17.456Z,0
2023-02-23T09:59:48.267Z,0
2023-02-23T10:05:27.537Z,0
2023-02-23T10:10:40.339Z,0
2023-02-23T10:16:22.881Z,0
2023-02-23T10:22:09.283Z,0
2023-02-23T10:27:19.120Z,0
2023-02-23T10:32:59.869Z,0
2023-02-23T10:38:37.647Z,0
2023-02-23T10:44:19.111Z,0
2023-02-23T10:50:02.882Z,0
2023-02-23T10:55:22.537Z,0
2023-02-23T11:01:12.739Z,0
2023-02-23T11:06:24.319Z,0
2023-02-23T12:19:19.168Z,0
2023-02-23T12:24:46.391Z,0
2023-02-23T12:41:35.536Z,2.4
2023-02-23T15:02:20.094Z,4.8
2023-02-23T15:24:54.489Z,7.2
2023-02-23T15:41:31.093Z,3.6
2023-02-23T17:10:59.331Z,0
2023-02-23T17:16:31.805Z,0
2023-02-23T17:22:14.850Z,0
2023-02-23T17:27:45.977Z,0
2023-02-23T17:32:57.768Z,0
2023-02-23T17:38:37.043Z,0
2023-02-23T17:44:30.142Z,4.8
2023-02-23T17:55:29.495Z,8.4
2023-02-23T18:23:09.556Z,0
2023-02-23T18:28:51.659Z,0
2023-02-23T18:34:26.255Z,0
2023-02-23T18:40:14.028Z,2.4
2023-02-23T18:45:39.707Z,3.6
2023-02-23T18:51:10.988Z,2.4
2023-02-23T18:56:31.533Z,10.7
2023-02-23T19:02:14.279Z,10.7
2023-02-23T19:08:02.120Z,10.7
2023-02-23T19:13:36.452Z,10.7
2023-02-23T19:19:17.342Z,9.6
2023-02-23T19:24:38.152Z,10.7
2023-02-23T19:30:21.021Z,11.9
2023-02-23T19:35:48.879Z,11.9
2023-02-23T19:47:01.133Z,10.7
2023-02-23T19:52:39.567Z,9.6
2023-02-23T19:57:59.928Z,4.8
2023-02-23T20:03:34.983Z,0
2023-02-23T20:09:05.456Z,0
2023-02-23T20:15:00.282Z,0
2023-02-23T20:20:14.431Z,0
2023-02-23T20:25:56.624Z,0
2023-02-23T20:31:27.552Z,0
2023-02-23T20:36:48.182Z,3.6
2023-02-23T20:42:40.573Z,2.4
2023-02-23T20:47:56.201Z,0
2023-02-23T20:53:51.159Z,0
2023-02-23T20:59:12.978Z,0
2023-02-23T21:04:36.273Z,0
2023-02-23T21:10:27.532Z,0
2023-02-23T21:16:02.777Z,0
2023-02-23T21:21:25.233Z,0
2023-02-23T21:26:49.486Z,0
2023-02-23T21:32:47.180Z,0
2023-02-23T21:38:16.770Z,0
2023-02-23T21:43:31.838Z,0
2023-02-23T21:49:04.738Z,0
2023-02-23T21:54:37.367Z,0
2023-02-23T22:00:29.035Z,0
2023-02-23T22:06:10.225Z,0
2023-02-23T22:11:43.333Z,0
2023-02-23T22:17:08.417Z,0
2023-02-23T22:22:44.658Z,0
2023-02-23T22:28:17.293Z,0
2023-02-23T22:33:41.572Z,3.6
2023-02-23T22:39:06.304Z,4.8
2023-02-23T22:44:45.679Z,0
2023-02-23T22:50:19.814Z,0
2023-02-23T22:56:10.310Z,0
2023-02-23T23:01:23.336Z,0
2023-02-23T23:07:01.965Z,0
2023-02-23T23:12:43.369Z,0
2023-02-23T23:18:15.096Z,0
2023-02-23T23:23:53.667Z,0
2023-02-23T23:29:12.437Z,0
2023-02-23T23:34:39.195Z,0
2023-02-23T23:40:21.332Z,0
2023-02-23T23:46:12.023Z,4.8
2023-02-23T23:51:42.051Z,8.4
2023-02-23T23:56:55.815Z,4.8
